METAR Data
IDs: Format: Raw Decoded Include TAF

Data at: 1643 UTC 03 Jun 2020

KRCM 031635Z AUTO 22012G17KT 10SM 28/21 A2989 RMK AO2
KRCM 031615Z AUTO 22009G14KT 10SM 28/21 A2989 RMK AO2
KRCM 031555Z AUTO 21011KT 10SM 27/21 A2990 RMK AO2
KRCM 031535Z AUTO 22012KT 10SM 27/21 A2990 RMK AO2
KRCM 031515Z AUTO 21011G14KT 10SM 27/21 A2990 RMK AO2
KRCM 031455Z AUTO 21011G16KT 10SM 26/20 A2991 RMK AO2
KRCM 031435Z AUTO 21007KT 10SM 26/21 A2992 RMK AO2
KRCM 031415Z AUTO 21007KT 10SM 25/20 A2993 RMK AO2
KRCM 031355Z AUTO 21011G15KT 10SM 25/20 A2993 RMK AO2
KRCM 031335Z AUTO 22009KT 10SM 25/20 A2992 RMK AO2
KRCM 031315Z AUTO 20010G15KT 10SM 23/20 A2992 RMK AO2
KRCM 031255Z AUTO 21010G15KT 10SM 23/20 A2991 RMK AO2
KRCM 031235Z AUTO 20009G16KT 10SM 22/20 A2991 RMK AO2
KRCM 031215Z AUTO 20009KT 10SM 22/19 A2991 RMK AO2
KRCM 031155Z AUTO 20007KT 10SM 21/19 A2990 RMK AO2
KRCM 031135Z AUTO 19008KT 10SM 21/19 A2990 RMK AO2
KRCM 031115Z AUTO 19007KT 10SM 21/19 A2991 RMK AO2
KRCM 031055Z AUTO 19008KT 10SM 21/18 A2991 RMK AO2
KRCM 031035Z AUTO 19007KT 10SM 21/18 A2991 RMK AO2
KRCM 031015Z AUTO 19007KT 10SM 21/18 A2991 RMK AO2
KRCM 030955Z AUTO 19007KT 10SM 21/18 A2992 RMK AO2
KRCM 030935Z AUTO 19006KT 10SM 21/18 A2992 RMK AO2
KRCM 030915Z AUTO 19006KT 10SM 21/18 A2992 RMK AO2
KRCM 030855Z AUTO 18005KT 10SM 21/18 A2993 RMK AO2 LTG DSNT N
KRCM 030835Z AUTO 19006KT 10SM 21/18 A2993 RMK AO2
KRCM 030815Z AUTO 19005KT 10SM 21/18 A2994 RMK AO2
KRCM 030755Z AUTO 19004KT 10SM 21/18 A2995 RMK AO2
KRCM 030735Z AUTO 18005KT 10SM 21/18 A2994 RMK AO2
KRCM 030715Z AUTO 18004KT 10SM 21/18 A2995 RMK AO2
KRCM 030655Z AUTO 19005KT 10SM 22/18 A2995 RMK AO2
KRCM 030635Z AUTO 19007KT 10SM 21/18 A2995 RMK AO2
KRCM 030615Z AUTO 18006KT 10SM 21/18 A2996 RMK AO2
KRCM 030555Z AUTO 18005KT 10SM 22/18 A2996 RMK AO2
KRCM 030535Z AUTO 17005KT 10SM 22/18 A2996 RMK AO2
KRCM 030515Z AUTO 17005KT 10SM 22/18 A2996 RMK AO2
KRCM 030455Z AUTO 18005KT 10SM 22/18 A2996 RMK AO2
KRCM 030435Z AUTO 18005KT 10SM 22/18 A2997 RMK AO2
KRCM 030415Z AUTO 18004KT 10SM 22/18 A2997 RMK AO2
KRCM 030355Z AUTO 18005KT 10SM 22/18 A2996 RMK AO2
KRCM 030335Z AUTO 18004KT 10SM 22/18 A2996 RMK AO2
KRCM 030315Z AUTO 17005KT 10SM 23/18 A2995 RMK AO2
KRCM 030255Z AUTO 18004KT 10SM 23/18 A2995 RMK AO2
KRCM 030235Z AUTO 17005KT 10SM 23/18 A2994 RMK AO2
KRCM 030215Z AUTO 16004KT 10SM 24/18 A2994 RMK AO2
KRCM 030155Z AUTO 18005KT 10SM 25/18 A2994 RMK AO2
KRCM 030135Z AUTO 18006KT 10SM 26/18 A2994 RMK AO2
KRCM 030115Z AUTO 17007KT 10SM 27/18 A2994 RMK AO2
KRCM 030055Z AUTO 20006KT 10SM 27/17 A2994 RMK AO2
KRCM 030035Z AUTO 18008G14KT 10SM 28/17 A2994 RMK AO2
KRCM 030015Z AUTO 19008KT 10SM 28/18 A2994 RMK AO2
KRCM 022355Z AUTO 15004KT 10SM 28/18 A2994 RMK AO2
KRCM 022335Z AUTO 17007KT 10SM 28/18 A2995 RMK AO2
KRCM 022315Z AUTO 19009KT 10SM 29/18 A2995 RMK AO2
KRCM 022215Z AUTO 20012G15KT 10SM 29/18 A2996 RMK AO2
KRCM 022155Z AUTO 18012KT 10SM 29/18 A2997 RMK AO2
KRCM 022135Z AUTO 19012G17KT 154V224 10SM 29/18 A2998 RMK AO2 LTG DSNT N
KRCM 022115Z AUTO 20010KT 10SM 29/17 A2998 RMK AO2
KRCM 022055Z AUTO 19011KT 10SM 29/17 A2998 RMK AO2
KRCM 022035Z AUTO 19011G15KT 10SM 29/18 A2998 RMK AO2
KRCM 022015Z AUTO 18012G15KT 10SM 30/18 A2999 RMK AO2
KRCM 021955Z AUTO 18013KT 10SM 30/18 A2999 RMK AO2
KRCM 021935Z AUTO 21011G16KT 10SM 29/18 A3000 RMK AO2
KRCM 021915Z AUTO 18011G14KT 10SM 28/18 A3000 RMK AO2
KRCM 021855Z AUTO 19011G16KT 10SM 28/18 A3001 RMK AO2 LTG DSNT SW
KRCM 021835Z AUTO 20012G15KT 10SM 28/18 A3002 RMK AO2
KRCM 021815Z AUTO 18010G15KT 10SM 28/18 A3002 RMK AO2
KRCM 021755Z AUTO 21008G15KT 10SM 27/18 A3003 RMK AO2
KRCM 021735Z AUTO 21012G15KT 10SM 27/18 A3003 RMK AO2
KRCM 021715Z AUTO 21008G17KT 10SM 27/18 A3003 RMK AO2
KRCM 021655Z AUTO 20013KT 10SM 26/18 A3004 RMK AO2
KRCM 021635Z AUTO 21009G14KT 10SM 26/18 A3004 RMK AO2
KRCM 021615Z AUTO 20010KT 10SM 26/18 A3005 RMK AO2
KRCM 021555Z AUTO 20010KT 10SM 25/18 A3005 RMK AO2
KRCM 021535Z AUTO 21010G16KT 10SM 24/17 A3006 RMK AO2
KRCM 021515Z AUTO 20012KT 10SM 25/17 A3006 RMK AO2
KRCM 021455Z AUTO 20009KT 10SM 23/17 A3006 RMK AO2
KRCM 021435Z AUTO 22009KT 10SM 23/17 A3007 RMK AO2
KRCM 021415Z AUTO 21008G15KT 10SM 23/17 A3007 RMK AO2
KRCM 021355Z AUTO 21008KT 10SM 22/17 A3006 RMK AO2
KRCM 021335Z AUTO 19008KT 10SM 22/17 A3006 RMK AO2
KRCM 021315Z AUTO 19006KT 10SM 21/16 A3006 RMK AO2
KRCM 021255Z AUTO 19006KT 10SM 20/16 A3005 RMK AO2
KRCM 021235Z AUTO 18006KT 10SM 19/16 A3005 RMK AO2
KRCM 021215Z AUTO 17005KT 10SM 18/16 A3005 RMK AO2
KRCM 021155Z AUTO 17005KT 10SM 17/15 A3005 RMK AO2
KRCM 021135Z AUTO 17004KT 10SM 17/15 A3005 RMK AO2
KRCM 021115Z AUTO 17005KT 10SM 17/15 A3004 RMK AO2
KRCM 021055Z AUTO 18003KT 10SM 17/15 A3004 RMK AO2
KRCM 021035Z AUTO 17003KT 10SM 17/15 A3004 RMK AO2
KRCM 021015Z AUTO 18005KT 10SM 17/15 A3003 RMK AO2
KRCM 020955Z AUTO 18004KT 10SM 18/15 A3003 RMK AO2
KRCM 020935Z AUTO 18004KT 10SM 18/15 A3003 RMK AO2
KRCM 020915Z AUTO 18004KT 10SM 18/15 A3003 RMK AO2
KRCM 020855Z AUTO 19006KT 10SM 18/15 A3002 RMK AO2
KRCM 020835Z AUTO 19006KT 10SM 19/15 A3002 RMK AO2
KRCM 020815Z AUTO 20006KT 10SM 20/15 A3003 RMK AO2
KRCM 020755Z AUTO 19006KT 10SM 20/15 A3003 RMK AO2
KRCM 020735Z AUTO 19006KT 10SM 20/15 A3003 RMK AO2
KRCM 020715Z AUTO 20007KT 10SM 20/15 A3004 RMK AO2
KRCM 020655Z AUTO 19008KT 10SM 20/15 A3004 RMK AO2
KRCM 020635Z AUTO 19006KT 10SM 20/15 A3004 RMK AO2
KRCM 020615Z AUTO 18008KT 10SM 20/15 A3005 RMK AO2
KRCM 020555Z AUTO 19006KT 10SM 20/15 A3005 RMK AO2
KRCM 020535Z AUTO 18006KT 10SM 20/15 A3006 RMK AO2
KRCM 020515Z AUTO 18005KT 10SM 20/15 A3006 RMK AO2
KRCM 020455Z AUTO 19005KT 10SM 20/15 A3007 RMK AO2